sensor_id;sensor_type;location;lat;lon;timestamp;P1;durP1;ratioP1;P2;durP2;ratioP2
20527;SDS011;23612;50.894;10.700;2022-12-05T00:01:30;42.40;;;20.70;;
20527;SDS011;23612;50.894;10.700;2022-12-05T00:04:08;65.17;;;22.47;;
20527;SDS011;23612;50.894;10.700;2022-12-05T00:06:35;55.33;;;21.27;;
20527;SDS011;23612;50.894;10.700;2022-12-05T00:09:03;45.70;;;21.27;;
20527;SDS011;23612;50.894;10.700;2022-12-05T00:11:30;42.13;;;21.03;;
20527;SDS011;23612;50.894;10.700;2022-12-05T00:13:57;57.67;;;22.50;;
20527;SDS011;23612;50.894;10.700;2022-12-05T00:16:24;45.13;;;21.13;;
20527;SDS011;23612;50.894;10.700;2022-12-05T00:18:52;43.37;;;21.77;;
20527;SDS011;23612;50.894;10.700;2022-12-05T00:21:19;45.57;;;21.83;;
20527;SDS011;23612;50.894;10.700;2022-12-05T00:23:46;51.70;;;22.20;;
20527;SDS011;23612;50.894;10.700;2022-12-05T00:26:13;51.33;;;23.10;;
20527;SDS011;23612;50.894;10.700;2022-12-05T00:28:39;53.50;;;21.50;;
20527;SDS011;23612;50.894;10.700;2022-12-05T00:31:09;45.20;;;22.77;;
20527;SDS011;23612;50.894;10.700;2022-12-05T00:33:37;47.80;;;21.00;;
20527;SDS011;23612;50.894;10.700;2022-12-05T00:36:04;45.20;;;21.87;;
20527;SDS011;23612;50.894;10.700;2022-12-05T00:38:32;54.07;;;22.53;;
20527;SDS011;23612;50.894;10.700;2022-12-05T00:41:02;48.60;;;21.97;;
20527;SDS011;23612;50.894;10.700;2022-12-05T00:43:28;46.58;;;22.40;;
20527;SDS011;23612;50.894;10.700;2022-12-05T00:45:54;40.57;;;20.97;;
20527;SDS011;23612;50.894;10.700;2022-12-05T00:48:19;42.73;;;21.37;;
20527;SDS011;23612;50.894;10.700;2022-12-05T00:50:45;43.10;;;20.40;;
20527;SDS011;23612;50.894;10.700;2022-12-05T00:53:10;42.47;;;20.10;;
20527;SDS011;23612;50.894;10.700;2022-12-05T00:55:36;40.17;;;20.97;;
20527;SDS011;23612;50.894;10.700;2022-12-05T00:58:02;40.67;;;20.23;;
20527;SDS011;23612;50.894;10.700;2022-12-05T01:00:27;38.07;;;19.80;;
20527;SDS011;23612;50.894;10.700;2022-12-05T01:02:54;38.10;;;18.52;;
20527;SDS011;23612;50.894;10.700;2022-12-05T01:05:19;33.50;;;18.40;;
20527;SDS011;23612;50.894;10.700;2022-12-05T01:07:45;35.50;;;19.97;;
20527;SDS011;23612;50.894;10.700;2022-12-05T01:10:10;35.33;;;18.63;;
20527;SDS011;23612;50.894;10.700;2022-12-05T01:12:36;33.83;;;18.33;;
20527;SDS011;23612;50.894;10.700;2022-12-05T01:15:01;31.23;;;17.60;;
20527;SDS011;23612;50.894;10.700;2022-12-05T01:17:28;31.30;;;17.75;;
20527;SDS011;23612;50.894;10.700;2022-12-05T01:19:53;31.07;;;17.67;;
20527;SDS011;23612;50.894;10.700;2022-12-05T01:22:19;31.40;;;17.55;;
20527;SDS011;23612;50.894;10.700;2022-12-05T01:24:44;30.63;;;16.43;;
20527;SDS011;23612;50.894;10.700;2022-12-05T01:27:10;27.90;;;16.63;;
20527;SDS011;23612;50.894;10.700;2022-12-05T01:29:35;30.50;;;16.57;;
20527;SDS011;23612;50.894;10.700;2022-12-05T01:32:01;35.03;;;17.80;;
20527;SDS011;23612;50.894;10.700;2022-12-05T01:34:27;38.80;;;18.23;;
20527;SDS011;23612;50.894;10.700;2022-12-05T01:36:53;34.35;;;18.45;;
20527;SDS011;23612;50.894;10.700;2022-12-05T01:39:18;35.65;;;18.55;;
20527;SDS011;23612;50.894;10.700;2022-12-05T01:41:45;32.63;;;17.70;;
20527;SDS011;23612;50.894;10.700;2022-12-05T01:46:42;34.58;;;16.60;;
20527;SDS011;23612;50.894;10.700;2022-12-05T01:49:10;32.05;;;16.67;;
20527;SDS011;23612;50.894;10.700;2022-12-05T01:51:44;30.47;;;16.37;;
20527;SDS011;23612;50.894;10.700;2022-12-05T01:54:11;29.42;;;16.10;;
20527;SDS011;23612;50.894;10.700;2022-12-05T01:56:39;32.50;;;16.50;;
20527;SDS011;23612;50.894;10.700;2022-12-05T01:59:08;29.50;;;15.35;;
20527;SDS011;23612;50.894;10.700;2022-12-05T02:01:35;25.70;;;14.68;;
20527;SDS011;23612;50.894;10.700;2022-12-05T02:04:02;27.80;;;15.77;;
20527;SDS011;23612;50.894;10.700;2022-12-05T02:06:28;28.02;;;15.15;;
20527;SDS011;23612;50.894;10.700;2022-12-05T02:08:55;26.80;;;15.55;;
20527;SDS011;23612;50.894;10.700;2022-12-05T02:11:20;27.47;;;15.20;;
20527;SDS011;23612;50.894;10.700;2022-12-05T02:14:08;28.10;;;14.90;;
20527;SDS011;23612;50.894;10.700;2022-12-05T02:17:05;28.77;;;16.03;;
20527;SDS011;23612;50.894;10.700;2022-12-05T02:19:59;28.98;;;15.75;;
20527;SDS011;23612;50.894;10.700;2022-12-05T02:25:56;29.40;;;15.60;;
20527;SDS011;23612;50.894;10.700;2022-12-05T02:28:52;28.03;;;15.87;;
20527;SDS011;23612;50.894;10.700;2022-12-05T02:31:36;30.57;;;15.97;;
20527;SDS011;23612;50.894;10.700;2022-12-05T02:34:25;27.30;;;15.77;;
20527;SDS011;23612;50.894;10.700;2022-12-05T02:37:02;29.50;;;15.80;;
20527;SDS011;23612;50.894;10.700;2022-12-05T02:42:12;27.43;;;15.03;;
20527;SDS011;23612;50.894;10.700;2022-12-05T02:45:01;26.83;;;15.53;;
20527;SDS011;23612;50.894;10.700;2022-12-05T02:47:41;26.50;;;15.33;;
20527;SDS011;23612;50.894;10.700;2022-12-05T02:50:10;26.10;;;15.30;;
20527;SDS011;23612;50.894;10.700;2022-12-05T02:52:41;26.77;;;15.20;;
20527;SDS011;23612;50.894;10.700;2022-12-05T02:55:09;26.30;;;14.87;;
20527;SDS011;23612;50.894;10.700;2022-12-05T02:57:36;26.75;;;15.10;;
20527;SDS011;23612;50.894;10.700;2022-12-05T03:00:03;24.33;;;14.77;;
20527;SDS011;23612;50.894;10.700;2022-12-05T03:02:31;26.60;;;15.02;;
20527;SDS011;23612;50.894;10.700;2022-12-05T03:05:01;24.37;;;14.77;;
20527;SDS011;23612;50.894;10.700;2022-12-05T03:07:53;23.80;;;14.13;;
20527;SDS011;23612;50.894;10.700;2022-12-05T03:10:22;24.23;;;13.93;;
20527;SDS011;23612;50.894;10.700;2022-12-05T03:12:53;30.45;;;14.75;;
20527;SDS011;23612;50.894;10.700;2022-12-05T03:15:31;25.30;;;14.50;;
20527;SDS011;23612;50.894;10.700;2022-12-05T03:18:14;28.25;;;16.90;;
20527;SDS011;23612;50.894;10.700;2022-12-05T03:20:46;25.52;;;15.02;;
20527;SDS011;23612;50.894;10.700;2022-12-05T03:23:24;24.30;;;14.73;;
20527;SDS011;23612;50.894;10.700;2022-12-05T03:28:51;25.58;;;15.40;;
20527;SDS011;23612;50.894;10.700;2022-12-05T03:31:30;27.60;;;15.23;;
20527;SDS011;23612;50.894;10.700;2022-12-05T03:34:13;25.05;;;13.93;;
20527;SDS011;23612;50.894;10.700;2022-12-05T03:36:48;23.87;;;13.63;;
20527;SDS011;23612;50.894;10.700;2022-12-05T03:44:16;20.47;;;13.20;;
20527;SDS011;23612;50.894;10.700;2022-12-05T03:46:52;25.80;;;14.23;;
20527;SDS011;23612;50.894;10.700;2022-12-05T03:49:33;22.47;;;14.10;;
20527;SDS011;23612;50.894;10.700;2022-12-05T03:54:39;25.30;;;14.43;;
20527;SDS011;23612;50.894;10.700;2022-12-05T03:57:13;25.00;;;14.40;;
20527;SDS011;23612;50.894;10.700;2022-12-05T03:59:43;25.38;;;13.90;;
20527;SDS011;23612;50.894;10.700;2022-12-05T04:02:16;23.25;;;14.07;;
20527;SDS011;23612;50.894;10.700;2022-12-05T04:04:55;25.57;;;14.27;;
20527;SDS011;23612;50.894;10.700;2022-12-05T04:07:30;30.67;;;16.07;;
20527;SDS011;23612;50.894;10.700;2022-12-05T04:10:02;27.70;;;16.27;;
20527;SDS011;23612;50.894;10.700;2022-12-05T04:12:35;26.90;;;16.03;;
20527;SDS011;23612;50.894;10.700;2022-12-05T04:15:05;29.90;;;15.83;;
20527;SDS011;23612;50.894;10.700;2022-12-05T04:20:24;39.60;;;16.20;;
20527;SDS011;23612;50.894;10.700;2022-12-05T04:23:12;34.42;;;16.58;;
20527;SDS011;23612;50.894;10.700;2022-12-05T04:25:41;25.87;;;15.73;;
20527;SDS011;23612;50.894;10.700;2022-12-05T04:28:31;26.20;;;16.00;;
20527;SDS011;23612;50.894;10.700;2022-12-05T04:31:13;29.27;;;17.43;;
20527;SDS011;23612;50.894;10.700;2022-12-05T04:33:54;31.90;;;16.87;;
20527;SDS011;23612;50.894;10.700;2022-12-05T04:36:25;30.67;;;16.83;;
20527;SDS011;23612;50.894;10.700;2022-12-05T04:38:58;30.07;;;17.17;;
20527;SDS011;23612;50.894;10.700;2022-12-05T04:41:28;31.07;;;17.10;;
20527;SDS011;23612;50.894;10.700;2022-12-05T04:44:01;37.10;;;18.60;;
20527;SDS011;23612;50.894;10.700;2022-12-05T04:46:34;52.08;;;20.55;;
20527;SDS011;23612;50.894;10.700;2022-12-05T04:49:02;60.67;;;19.13;;
20527;SDS011;23612;50.894;10.700;2022-12-05T04:51:32;46.03;;;19.13;;
20527;SDS011;23612;50.894;10.700;2022-12-05T04:54:01;68.93;;;19.57;;
20527;SDS011;23612;50.894;10.700;2022-12-05T04:56:33;34.87;;;18.13;;
20527;SDS011;23612;50.894;10.700;2022-12-05T04:59:01;69.03;;;20.00;;
20527;SDS011;23612;50.894;10.700;2022-12-05T05:01:33;38.20;;;18.43;;
20527;SDS011;23612;50.894;10.700;2022-12-05T05:04:20;35.47;;;17.97;;
20527;SDS011;23612;50.894;10.700;2022-12-05T05:06:51;33.57;;;18.73;;
20527;SDS011;23612;50.894;10.700;2022-12-05T05:09:17;38.67;;;18.73;;
20527;SDS011;23612;50.894;10.700;2022-12-05T05:11:42;44.60;;;19.03;;
20527;SDS011;23612;50.894;10.700;2022-12-05T05:14:08;35.70;;;18.60;;
20527;SDS011;23612;50.894;10.700;2022-12-05T05:16:34;38.60;;;19.33;;
20527;SDS011;23612;50.894;10.700;2022-12-05T05:19:02;35.90;;;19.10;;
20527;SDS011;23612;50.894;10.700;2022-12-05T05:21:29;45.90;;;20.57;;
20527;SDS011;23612;50.894;10.700;2022-12-05T05:23:57;58.07;;;19.90;;
20527;SDS011;23612;50.894;10.700;2022-12-05T05:26:23;46.20;;;20.30;;
20527;SDS011;23612;50.894;10.700;2022-12-05T05:28:50;40.90;;;20.77;;
20527;SDS011;23612;50.894;10.700;2022-12-05T05:31:16;42.63;;;20.43;;
20527;SDS011;23612;50.894;10.700;2022-12-05T05:33:43;39.67;;;20.27;;
20527;SDS011;23612;50.894;10.700;2022-12-05T05:36:12;45.28;;;20.58;;
20527;SDS011;23612;50.894;10.700;2022-12-05T05:38:38;69.65;;;18.92;;
20527;SDS011;23612;50.894;10.700;2022-12-05T05:41:10;72.40;;;20.83;;
20527;SDS011;23612;50.894;10.700;2022-12-05T05:43:40;76.43;;;22.20;;
20527;SDS011;23612;50.894;10.700;2022-12-05T05:46:06;70.27;;;22.37;;
20527;SDS011;23612;50.894;10.700;2022-12-05T05:48:31;79.37;;;21.43;;
20527;SDS011;23612;50.894;10.700;2022-12-05T05:51:00;48.93;;;20.57;;
20527;SDS011;23612;50.894;10.700;2022-12-05T05:53:26;55.63;;;19.95;;
20527;SDS011;23612;50.894;10.700;2022-12-05T05:55:52;53.60;;;20.03;;
20527;SDS011;23612;50.894;10.700;2022-12-05T05:58:17;44.13;;;18.42;;
20527;SDS011;23612;50.894;10.700;2022-12-05T06:00:43;44.83;;;19.67;;
20527;SDS011;23612;50.894;10.700;2022-12-05T06:03:08;38.22;;;19.52;;
20527;SDS011;23612;50.894;10.700;2022-12-05T06:05:34;44.80;;;19.93;;
20527;SDS011;23612;50.894;10.700;2022-12-05T06:07:59;36.70;;;21.17;;
20527;SDS011;23612;50.894;10.700;2022-12-05T06:10:25;38.17;;;19.33;;
20527;SDS011;23612;50.894;10.700;2022-12-05T06:12:51;33.35;;;19.55;;
20527;SDS011;23612;50.894;10.700;2022-12-05T06:15:17;47.58;;;19.35;;
20527;SDS011;23612;50.894;10.700;2022-12-05T06:17:42;37.50;;;19.42;;
20527;SDS011;23612;50.894;10.700;2022-12-05T06:20:08;34.15;;;19.13;;
20527;SDS011;23612;50.894;10.700;2022-12-05T06:22:34;36.30;;;19.30;;
20527;SDS011;23612;50.894;10.700;2022-12-05T06:24:59;37.53;;;19.92;;
20527;SDS011;23612;50.894;10.700;2022-12-05T06:27:25;35.03;;;20.20;;
20527;SDS011;23612;50.894;10.700;2022-12-05T06:29:52;33.13;;;18.80;;
20527;SDS011;23612;50.894;10.700;2022-12-05T06:32:18;36.57;;;19.57;;
20527;SDS011;23612;50.894;10.700;2022-12-05T06:34:43;37.70;;;20.40;;
20527;SDS011;23612;50.894;10.700;2022-12-05T06:37:09;32.15;;;19.20;;
20527;SDS011;23612;50.894;10.700;2022-12-05T06:39:34;35.20;;;19.27;;
20527;SDS011;23612;50.894;10.700;2022-12-05T06:42:00;35.40;;;19.42;;
20527;SDS011;23612;50.894;10.700;2022-12-05T06:44:26;37.60;;;18.70;;
20527;SDS011;23612;50.894;10.700;2022-12-05T06:46:53;35.50;;;18.35;;
20527;SDS011;23612;50.894;10.700;2022-12-05T06:49:19;29.42;;;17.20;;
20527;SDS011;23612;50.894;10.700;2022-12-05T06:51:45;30.63;;;17.58;;
20527;SDS011;23612;50.894;10.700;2022-12-05T06:54:11;33.45;;;18.40;;
20527;SDS011;23612;50.894;10.700;2022-12-05T06:56:37;34.45;;;18.77;;
20527;SDS011;23612;50.894;10.700;2022-12-05T06:59:03;32.28;;;18.50;;
20527;SDS011;23612;50.894;10.700;2022-12-05T07:01:28;36.15;;;17.80;;
20527;SDS011;23612;50.894;10.700;2022-12-05T07:04:07;36.03;;;18.23;;
20527;SDS011;23612;50.894;10.700;2022-12-05T07:06:34;31.02;;;18.20;;
20527;SDS011;23612;50.894;10.700;2022-12-05T07:09:00;33.60;;;17.38;;
20527;SDS011;23612;50.894;10.700;2022-12-05T07:11:26;29.60;;;16.90;;
20527;SDS011;23612;50.894;10.700;2022-12-05T07:13:51;25.17;;;15.55;;
20527;SDS011;23612;50.894;10.700;2022-12-05T07:16:17;26.27;;;16.20;;
20527;SDS011;23612;50.894;10.700;2022-12-05T07:18:43;27.92;;;16.48;;
20527;SDS011;23612;50.894;10.700;2022-12-05T07:21:10;27.70;;;14.98;;
20527;SDS011;23612;50.894;10.700;2022-12-05T07:23:37;23.55;;;15.15;;
20527;SDS011;23612;50.894;10.700;2022-12-05T07:26:03;25.63;;;15.17;;
20527;SDS011;23612;50.894;10.700;2022-12-05T07:28:30;25.73;;;15.88;;
20527;SDS011;23612;50.894;10.700;2022-12-05T07:30:59;22.92;;;14.25;;
20527;SDS011;23612;50.894;10.700;2022-12-05T07:33:26;23.00;;;14.45;;
20527;SDS011;23612;50.894;10.700;2022-12-05T07:35:52;22.65;;;14.68;;
20527;SDS011;23612;50.894;10.700;2022-12-05T07:38:22;25.67;;;14.70;;
20527;SDS011;23612;50.894;10.700;2022-12-05T07:40:48;24.48;;;15.35;;
20527;SDS011;23612;50.894;10.700;2022-12-05T07:43:13;25.85;;;15.85;;
20527;SDS011;23612;50.894;10.700;2022-12-05T07:45:39;25.13;;;14.90;;
20527;SDS011;23612;50.894;10.700;2022-12-05T07:48:04;27.40;;;14.85;;
20527;SDS011;23612;50.894;10.700;2022-12-05T07:50:30;29.83;;;15.23;;
20527;SDS011;23612;50.894;10.700;2022-12-05T07:52:55;31.63;;;15.27;;
20527;SDS011;23612;50.894;10.700;2022-12-05T07:55:21;30.30;;;15.23;;
20527;SDS011;23612;50.894;10.700;2022-12-05T07:57:46;26.08;;;15.02;;
20527;SDS011;23612;50.894;10.700;2022-12-05T08:00:12;31.08;;;16.85;;
20527;SDS011;23612;50.894;10.700;2022-12-05T08:02:38;36.17;;;20.48;;
20527;SDS011;23612;50.894;10.700;2022-12-05T08:05:04;32.35;;;18.90;;
20527;SDS011;23612;50.894;10.700;2022-12-05T08:07:29;44.60;;;23.38;;
20527;SDS011;23612;50.894;10.700;2022-12-05T08:09:55;35.38;;;18.42;;
20527;SDS011;23612;50.894;10.700;2022-12-05T08:12:20;34.95;;;17.80;;
20527;SDS011;23612;50.894;10.700;2022-12-05T08:14:46;37.63;;;18.42;;
20527;SDS011;23612;50.894;10.700;2022-12-05T08:17:11;39.10;;;18.90;;
20527;SDS011;23612;50.894;10.700;2022-12-05T08:19:37;43.70;;;20.73;;
20527;SDS011;23612;50.894;10.700;2022-12-05T08:22:03;35.00;;;18.15;;
20527;SDS011;23612;50.894;10.700;2022-12-05T08:24:28;34.28;;;17.70;;
20527;SDS011;23612;50.894;10.700;2022-12-05T08:26:54;33.78;;;18.00;;
20527;SDS011;23612;50.894;10.700;2022-12-05T08:29:20;35.40;;;18.08;;
20527;SDS011;23612;50.894;10.700;2022-12-05T08:31:47;32.53;;;18.60;;
20527;SDS011;23612;50.894;10.700;2022-12-05T08:34:15;45.80;;;21.65;;
20527;SDS011;23612;50.894;10.700;2022-12-05T08:36:42;50.72;;;24.00;;
20527;SDS011;23612;50.894;10.700;2022-12-05T08:39:10;39.15;;;20.55;;
20527;SDS011;23612;50.894;10.700;2022-12-05T08:41:39;40.47;;;21.00;;
20527;SDS011;23612;50.894;10.700;2022-12-05T08:44:06;55.25;;;29.05;;
20527;SDS011;23612;50.894;10.700;2022-12-05T08:46:34;37.72;;;20.20;;
20527;SDS011;23612;50.894;10.700;2022-12-05T08:49:04;38.20;;;19.75;;
20527;SDS011;23612;50.894;10.700;2022-12-05T08:51:30;44.47;;;23.33;;
20527;SDS011;23612;50.894;10.700;2022-12-05T08:53:56;60.70;;;31.55;;
20527;SDS011;23612;50.894;10.700;2022-12-05T08:56:21;46.35;;;22.45;;
20527;SDS011;23612;50.894;10.700;2022-12-05T08:58:47;49.50;;;24.40;;
20527;SDS011;23612;50.894;10.700;2022-12-05T09:01:13;49.70;;;23.75;;
20527;SDS011;23612;50.894;10.700;2022-12-05T09:03:41;49.05;;;23.92;;
20527;SDS011;23612;50.894;10.700;2022-12-05T09:06:18;45.78;;;24.52;;
20527;SDS011;23612;50.894;10.700;2022-12-05T09:08:45;53.08;;;28.15;;
20527;SDS011;23612;50.894;10.700;2022-12-05T09:11:13;40.55;;;21.65;;
20527;SDS011;23612;50.894;10.700;2022-12-05T09:13:41;37.78;;;20.40;;
20527;SDS011;23612;50.894;10.700;2022-12-05T09:18:34;39.40;;;20.65;;
20527;SDS011;23612;50.894;10.700;2022-12-05T09:21:06;38.92;;;20.48;;
20527;SDS011;23612;50.894;10.700;2022-12-05T09:23:37;44.05;;;23.10;;
20527;SDS011;23612;50.894;10.700;2022-12-05T09:26:03;35.20;;;19.15;;
20527;SDS011;23612;50.894;10.700;2022-12-05T09:28:30;40.35;;;22.67;;
20527;SDS011;23612;50.894;10.700;2022-12-05T09:30:56;37.17;;;22.08;;
20527;SDS011;23612;50.894;10.700;2022-12-05T09:33:26;35.33;;;20.42;;
20527;SDS011;23612;50.894;10.700;2022-12-05T09:35:56;33.10;;;19.65;;
20527;SDS011;23612;50.894;10.700;2022-12-05T09:38:22;31.63;;;17.95;;
20527;SDS011;23612;50.894;10.700;2022-12-05T09:40:50;35.35;;;18.15;;
20527;SDS011;23612;50.894;10.700;2022-12-05T09:46:22;36.70;;;19.25;;
20527;SDS011;23612;50.894;10.700;2022-12-05T09:49:01;37.80;;;20.48;;
20527;SDS011;23612;50.894;10.700;2022-12-05T09:51:29;44.50;;;24.08;;
20527;SDS011;23612;50.894;10.700;2022-12-05T09:53:56;38.05;;;20.75;;
20527;SDS011;23612;50.894;10.700;2022-12-05T09:56:25;36.08;;;21.25;;
20527;SDS011;23612;50.894;10.700;2022-12-05T09:58:54;33.75;;;19.13;;
20527;SDS011;23612;50.894;10.700;2022-12-05T10:01:40;57.90;;;31.98;;
20527;SDS011;23612;50.894;10.700;2022-12-05T10:07:15;44.20;;;21.63;;
20527;SDS011;23612;50.894;10.700;2022-12-05T10:16:01;32.25;;;18.50;;
20527;SDS011;23612;50.894;10.700;2022-12-05T10:20:47;29.02;;;16.50;;
20527;SDS011;23612;50.894;10.700;2022-12-05T10:23:20;28.02;;;16.55;;
20527;SDS011;23612;50.894;10.700;2022-12-05T10:25:50;33.63;;;18.63;;
20527;SDS011;23612;50.894;10.700;2022-12-05T10:28:41;27.90;;;16.88;;
20527;SDS011;23612;50.894;10.700;2022-12-05T10:31:15;38.83;;;19.73;;
20527;SDS011;23612;50.894;10.700;2022-12-05T10:33:45;74.28;;;34.45;;
20527;SDS011;23612;50.894;10.700;2022-12-05T10:36:13;100.47;;;42.35;;
20527;SDS011;23612;50.894;10.700;2022-12-05T10:38:42;38.65;;;19.63;;
20527;SDS011;23612;50.894;10.700;2022-12-05T10:41:10;30.48;;;17.25;;
20527;SDS011;23612;50.894;10.700;2022-12-05T10:43:41;26.83;;;16.63;;
20527;SDS011;23612;50.894;10.700;2022-12-05T10:46:09;30.48;;;18.67;;
20527;SDS011;23612;50.894;10.700;2022-12-05T10:48:37;27.50;;;17.08;;
20527;SDS011;23612;50.894;10.700;2022-12-05T10:51:05;28.73;;;17.55;;
20527;SDS011;23612;50.894;10.700;2022-12-05T10:53:39;29.05;;;17.70;;
20527;SDS011;23612;50.894;10.700;2022-12-05T10:59:00;30.67;;;18.52;;
20527;SDS011;23612;50.894;10.700;2022-12-05T11:01:26;59.22;;;26.83;;
20527;SDS011;23612;50.894;10.700;2022-12-05T11:03:59;81.00;;;34.45;;
20527;SDS011;23612;50.894;10.700;2022-12-05T11:06:30;149.20;;;61.95;;
20527;SDS011;23612;50.894;10.700;2022-12-05T11:08:57;79.05;;;36.38;;
20527;SDS011;23612;50.894;10.700;2022-12-05T11:11:28;36.55;;;20.40;;
20527;SDS011;23612;50.894;10.700;2022-12-05T11:14:39;35.92;;;20.13;;
20527;SDS011;23612;50.894;10.700;2022-12-05T11:16:51;59.58;;;37.67;;
20527;SDS011;23612;50.894;10.700;2022-12-05T11:19:37;38.55;;;24.27;;
20527;SDS011;23612;50.894;10.700;2022-12-05T11:22:03;34.55;;;22.13;;
20527;SDS011;23612;50.894;10.700;2022-12-05T11:32:44;34.83;;;18.98;;
20527;SDS011;23612;50.894;10.700;2022-12-05T11:37:47;37.65;;;21.60;;
20527;SDS011;23612;50.894;10.700;2022-12-05T11:40:20;42.97;;;22.77;;
20527;SDS011;23612;50.894;10.700;2022-12-05T11:45:39;33.67;;;19.20;;
20527;SDS011;23612;50.894;10.700;2022-12-05T11:51:06;28.70;;;17.85;;
20527;SDS011;23612;50.894;10.700;2022-12-05T11:53:38;26.38;;;16.67;;
20527;SDS011;23612;50.894;10.700;2022-12-05T12:07:41;48.97;;;26.55;;
20527;SDS011;23612;50.894;10.700;2022-12-05T12:22:12;44.25;;;26.67;;
20527;SDS011;23612;50.894;10.700;2022-12-05T12:24:59;46.08;;;28.83;;
20527;SDS011;23612;50.894;10.700;2022-12-05T12:30:30;44.10;;;27.08;;
20527;SDS011;23612;50.894;10.700;2022-12-05T12:36:05;38.63;;;25.10;;
20527;SDS011;23612;50.894;10.700;2022-12-05T12:44:57;41.10;;;24.63;;
20527;SDS011;23612;50.894;10.700;2022-12-05T12:47:41;34.42;;;23.58;;
20527;SDS011;23612;50.894;10.700;2022-12-05T12:50:24;34.78;;;22.95;;
20527;SDS011;23612;50.894;10.700;2022-12-05T12:55:29;37.15;;;19.92;;
20527;SDS011;23612;50.894;10.700;2022-12-05T12:58:25;29.58;;;19.10;;
20527;SDS011;23612;50.894;10.700;2022-12-05T13:04:12;29.17;;;17.85;;
20527;SDS011;23612;50.894;10.700;2022-12-05T13:06:43;26.48;;;16.42;;
20527;SDS011;23612;50.894;10.700;2022-12-05T13:11:58;24.52;;;15.00;;
20527;SDS011;23612;50.894;10.700;2022-12-05T13:14:30;34.72;;;19.05;;
20527;SDS011;23612;50.894;10.700;2022-12-05T13:17:00;26.70;;;17.35;;
20527;SDS011;23612;50.894;10.700;2022-12-05T13:22:09;39.97;;;22.75;;
20527;SDS011;23612;50.894;10.700;2022-12-05T13:24:36;37.55;;;21.38;;
20527;SDS011;23612;50.894;10.700;2022-12-05T13:27:05;32.70;;;19.73;;
20527;SDS011;23612;50.894;10.700;2022-12-05T13:29:33;43.05;;;24.88;;
20527;SDS011;23612;50.894;10.700;2022-12-05T13:32:03;37.67;;;21.98;;
20527;SDS011;23612;50.894;10.700;2022-12-05T13:37:10;71.82;;;32.92;;
20527;SDS011;23612;50.894;10.700;2022-12-05T13:40:05;46.58;;;25.80;;
20527;SDS011;23612;50.894;10.700;2022-12-05T13:43:07;56.38;;;32.65;;
20527;SDS011;23612;50.894;10.700;2022-12-05T13:45:34;38.63;;;23.65;;
20527;SDS011;23612;50.894;10.700;2022-12-05T13:48:19;31.80;;;20.42;;
20527;SDS011;23612;50.894;10.700;2022-12-05T13:53:25;32.22;;;20.75;;
20527;SDS011;23612;50.894;10.700;2022-12-05T13:55:57;69.13;;;37.85;;
20527;SDS011;23612;50.894;10.700;2022-12-05T14:00:48;41.97;;;24.05;;
20527;SDS011;23612;50.894;10.700;2022-12-05T14:09:02;64.95;;;31.95;;
20527;SDS011;23612;50.894;10.700;2022-12-05T14:11:29;82.40;;;37.53;;
20527;SDS011;23612;50.894;10.700;2022-12-05T14:13:55;83.35;;;38.92;;
20527;SDS011;23612;50.894;10.700;2022-12-05T14:21:52;93.65;;;46.03;;
20527;SDS011;23612;50.894;10.700;2022-12-05T14:24:50;68.63;;;36.88;;
20527;SDS011;23612;50.894;10.700;2022-12-05T14:30:25;55.88;;;30.77;;
20527;SDS011;23612;50.894;10.700;2022-12-05T14:32:59;48.38;;;27.23;;
20527;SDS011;23612;50.894;10.700;2022-12-05T14:35:27;42.38;;;24.95;;
20527;SDS011;23612;50.894;10.700;2022-12-05T14:40:27;44.03;;;24.95;;
20527;SDS011;23612;50.894;10.700;2022-12-05T14:42:59;42.00;;;25.88;;
20527;SDS011;23612;50.894;10.700;2022-12-05T14:50:45;33.92;;;20.58;;
20527;SDS011;23612;50.894;10.700;2022-12-05T14:53:14;40.25;;;23.77;;
20527;SDS011;23612;50.894;10.700;2022-12-05T14:55:52;39.28;;;26.13;;
20527;SDS011;23612;50.894;10.700;2022-12-05T15:00:56;35.28;;;23.00;;
20527;SDS011;23612;50.894;10.700;2022-12-05T15:04:05;40.58;;;26.40;;
20527;SDS011;23612;50.894;10.700;2022-12-05T15:06:33;42.00;;;24.60;;
20527;SDS011;23612;50.894;10.700;2022-12-05T15:09:26;31.20;;;20.40;;
20527;SDS011;23612;50.894;10.700;2022-12-05T15:12:05;30.38;;;19.80;;
20527;SDS011;23612;50.894;10.700;2022-12-05T15:14:38;28.50;;;19.10;;
20527;SDS011;23612;50.894;10.700;2022-12-05T15:17:28;30.40;;;17.73;;
20527;SDS011;23612;50.894;10.700;2022-12-05T15:20:13;30.13;;;17.88;;
20527;SDS011;23612;50.894;10.700;2022-12-05T15:22:41;29.00;;;18.45;;
20527;SDS011;23612;50.894;10.700;2022-12-05T15:25:20;45.40;;;28.00;;
20527;SDS011;23612;50.894;10.700;2022-12-05T15:27:52;35.38;;;19.17;;
20527;SDS011;23612;50.894;10.700;2022-12-05T15:30:19;87.00;;;42.35;;
20527;SDS011;23612;50.894;10.700;2022-12-05T15:32:44;57.53;;;32.38;;
20527;SDS011;23612;50.894;10.700;2022-12-05T15:35:10;40.03;;;22.77;;
20527;SDS011;23612;50.894;10.700;2022-12-05T15:40:23;53.88;;;28.60;;
20527;SDS011;23612;50.894;10.700;2022-12-05T15:42:53;47.33;;;25.98;;
20527;SDS011;23612;50.894;10.700;2022-12-05T15:45:22;51.83;;;27.80;;
20527;SDS011;23612;50.894;10.700;2022-12-05T15:47:50;48.85;;;29.33;;
20527;SDS011;23612;50.894;10.700;2022-12-05T15:50:29;41.90;;;23.30;;
20527;SDS011;23612;50.894;10.700;2022-12-05T15:53:05;38.85;;;20.92;;
20527;SDS011;23612;50.894;10.700;2022-12-05T15:55:52;32.65;;;19.70;;
20527;SDS011;23612;50.894;10.700;2022-12-05T15:58:34;27.50;;;17.25;;
20527;SDS011;23612;50.894;10.700;2022-12-05T16:01:19;43.22;;;29.13;;
20527;SDS011;23612;50.894;10.700;2022-12-05T16:04:00;30.13;;;19.17;;
20527;SDS011;23612;50.894;10.700;2022-12-05T16:06:41;28.77;;;17.85;;
20527;SDS011;23612;50.894;10.700;2022-12-05T16:09:25;28.90;;;18.02;;
20527;SDS011;23612;50.894;10.700;2022-12-05T16:11:55;34.03;;;20.75;;
20527;SDS011;23612;50.894;10.700;2022-12-05T16:14:24;23.92;;;16.25;;
20527;SDS011;23612;50.894;10.700;2022-12-05T16:16:56;27.58;;;16.55;;
20527;SDS011;23612;50.894;10.700;2022-12-05T16:19:24;28.60;;;16.13;;
20527;SDS011;23612;50.894;10.700;2022-12-05T16:22:00;25.08;;;16.75;;
20527;SDS011;23612;50.894;10.700;2022-12-05T16:27:21;28.60;;;16.98;;
20527;SDS011;23612;50.894;10.700;2022-12-05T16:32:37;28.98;;;16.95;;
20527;SDS011;23612;50.894;10.700;2022-12-05T16:35:21;33.80;;;21.55;;
20527;SDS011;23612;50.894;10.700;2022-12-05T16:38:05;34.92;;;23.25;;
20527;SDS011;23612;50.894;10.700;2022-12-05T16:43:43;39.13;;;24.30;;
20527;SDS011;23612;50.894;10.700;2022-12-05T16:48:37;44.72;;;26.50;;
20527;SDS011;23612;50.894;10.700;2022-12-05T16:51:24;45.50;;;26.67;;
20527;SDS011;23612;50.894;10.700;2022-12-05T16:53:51;48.45;;;27.80;;
20527;SDS011;23612;50.894;10.700;2022-12-05T16:56:24;59.13;;;32.53;;
20527;SDS011;23612;50.894;10.700;2022-12-05T16:58:51;51.67;;;29.40;;
20527;SDS011;23612;50.894;10.700;2022-12-05T17:01:18;61.42;;;31.48;;